sensor_id;sensor_type;location;lat;lon;timestamp;pressure;altitude;pressure_sealevel;temperature;humidity
81905;BME280;71370;-33.792;151.032;2023-09-19T00:00:58;101006.88;;;28.33;21.75
81905;BME280;71370;-33.792;151.032;2023-09-19T00:02:05;101005.09;;;28.38;21.83
81905;BME280;71370;-33.792;151.032;2023-09-19T00:03:14;101005.45;;;28.42;22.13
81905;BME280;71370;-33.792;151.032;2023-09-19T00:04:21;101002.07;;;28.46;21.84
81905;BME280;71370;-33.792;151.032;2023-09-19T00:05:36;100995.86;;;28.50;21.93
81905;BME280;71370;-33.792;151.032;2023-09-19T00:06:50;100995.13;;;28.57;21.97
81905;BME280;71370;-33.792;151.032;2023-09-19T00:08:00;100999.52;;;28.63;21.72
81905;BME280;71370;-33.792;151.032;2023-09-19T00:09:07;100994.80;;;28.68;21.61
81905;BME280;71370;-33.792;151.032;2023-09-19T00:10:17;100994.89;;;28.73;21.64
81905;BME280;71370;-33.792;151.032;2023-09-19T00:11:25;100989.57;;;28.78;21.66
81905;BME280;71370;-33.792;151.032;2023-09-19T00:12:33;100989.31;;;28.83;21.42
81905;BME280;71370;-33.792;151.032;2023-09-19T00:13:40;100983.00;;;28.87;21.06
81905;BME280;71370;-33.792;151.032;2023-09-19T00:14:47;100983.17;;;28.91;21.31
81905;BME280;71370;-33.792;151.032;2023-09-19T00:15:54;100981.27;;;28.96;20.42
81905;BME280;71370;-33.792;151.032;2023-09-19T00:17:04;100981.66;;;29.02;20.61
81905;BME280;71370;-33.792;151.032;2023-09-19T00:18:14;100973.40;;;29.08;20.50
81905;BME280;71370;-33.792;151.032;2023-09-19T00:19:27;100977.48;;;29.13;20.40
81905;BME280;71370;-33.792;151.032;2023-09-19T00:20:38;100972.30;;;29.17;20.30
81905;BME280;71370;-33.792;151.032;2023-09-19T00:21:45;100969.25;;;29.20;20.46
81905;BME280;71370;-33.792;151.032;2023-09-19T00:22:53;100967.31;;;29.26;20.54
81905;BME280;71370;-33.792;151.032;2023-09-19T00:24:00;100962.52;;;29.31;20.68
81905;BME280;71370;-33.792;151.032;2023-09-19T00:25:07;100964.48;;;29.35;20.78
81905;BME280;71370;-33.792;151.032;2023-09-19T00:26:15;100968.10;;;29.39;20.67
81905;BME280;71370;-33.792;151.032;2023-09-19T00:27:24;100965.42;;;29.45;20.38
81905;BME280;71370;-33.792;151.032;2023-09-19T00:28:31;100963.02;;;29.49;20.40
81905;BME280;71370;-33.792;151.032;2023-09-19T00:29:38;100962.95;;;29.55;20.73
81905;BME280;71370;-33.792;151.032;2023-09-19T00:30:46;100959.09;;;29.59;20.87
81905;BME280;71370;-33.792;151.032;2023-09-19T00:32:01;100958.80;;;29.64;20.72
81905;BME280;71370;-33.792;151.032;2023-09-19T00:33:12;100951.77;;;29.68;19.85
81905;BME280;71370;-33.792;151.032;2023-09-19T00:34:21;100949.23;;;29.72;20.25
81905;BME280;71370;-33.792;151.032;2023-09-19T00:35:28;100946.89;;;29.76;19.95
81905;BME280;71370;-33.792;151.032;2023-09-19T00:36:36;100946.61;;;29.81;19.81
81905;BME280;71370;-33.792;151.032;2023-09-19T00:37:44;100945.42;;;29.86;19.72
81905;BME280;71370;-33.792;151.032;2023-09-19T00:38:51;100946.79;;;29.93;20.16
81905;BME280;71370;-33.792;151.032;2023-09-19T00:39:59;100941.84;;;29.97;19.63
81905;BME280;71370;-33.792;151.032;2023-09-19T00:41:06;100938.19;;;30.01;20.29
81905;BME280;71370;-33.792;151.032;2023-09-19T00:42:22;100944.57;;;30.07;20.01
81905;BME280;71370;-33.792;151.032;2023-09-19T00:43:29;100936.87;;;30.12;19.15
81905;BME280;71370;-33.792;151.032;2023-09-19T00:44:40;100934.92;;;30.15;19.45
81905;BME280;71370;-33.792;151.032;2023-09-19T00:45:49;100930.52;;;30.18;19.43
81905;BME280;71370;-33.792;151.032;2023-09-19T00:46:57;100930.77;;;30.23;19.76
81905;BME280;71370;-33.792;151.032;2023-09-19T00:48:05;100926.89;;;30.25;19.31
81905;BME280;71370;-33.792;151.032;2023-09-19T00:49:15;100920.26;;;30.28;19.29
81905;BME280;71370;-33.792;151.032;2023-09-19T00:50:24;100918.92;;;30.31;19.23
81905;BME280;71370;-33.792;151.032;2023-09-19T00:51:31;100918.73;;;30.35;19.31
81905;BME280;71370;-33.792;151.032;2023-09-19T00:52:39;100918.58;;;30.39;19.09
81905;BME280;71370;-33.792;151.032;2023-09-19T00:53:47;100915.17;;;30.42;19.33
81905;BME280;71370;-33.792;151.032;2023-09-19T00:54:54;100910.61;;;30.47;19.35
81905;BME280;71370;-33.792;151.032;2023-09-19T00:56:03;100907.53;;;30.50;19.39
81905;BME280;71370;-33.792;151.032;2023-09-19T00:57:14;100907.52;;;30.56;19.61
81905;BME280;71370;-33.792;151.032;2023-09-19T00:58:25;100896.45;;;30.62;18.68
81905;BME280;71370;-33.792;151.032;2023-09-19T00:59:38;100901.02;;;30.69;19.12
81905;BME280;71370;-33.792;151.032;2023-09-19T01:00:48;100900.61;;;30.74;19.06
81905;BME280;71370;-33.792;151.032;2023-09-19T01:01:56;100897.60;;;30.78;19.28
81905;BME280;71370;-33.792;151.032;2023-09-19T01:03:03;100899.21;;;30.84;19.13
81905;BME280;71370;-33.792;151.032;2023-09-19T01:04:12;100897.46;;;30.91;18.87
81905;BME280;71370;-33.792;151.032;2023-09-19T01:05:20;100895.23;;;30.97;19.14
81905;BME280;71370;-33.792;151.032;2023-09-19T01:06:27;100892.48;;;31.03;19.14
81905;BME280;71370;-33.792;151.032;2023-09-19T01:07:34;100888.85;;;31.09;19.33
81905;BME280;71370;-33.792;151.032;2023-09-19T01:08:41;100888.36;;;31.14;18.76
81905;BME280;71370;-33.792;151.032;2023-09-19T01:09:48;100882.86;;;31.18;18.50
81905;BME280;71370;-33.792;151.032;2023-09-19T01:11:00;100884.62;;;31.24;18.75
81905;BME280;71370;-33.792;151.032;2023-09-19T01:12:11;100876.02;;;31.29;18.93
81905;BME280;71370;-33.792;151.032;2023-09-19T01:13:47;100875.02;;;31.35;18.82
81905;BME280;71370;-33.792;151.032;2023-09-19T01:14:59;100865.38;;;31.40;18.60
81905;BME280;71370;-33.792;151.032;2023-09-19T01:16:26;100861.16;;;31.44;18.60
81905;BME280;71370;-33.792;151.032;2023-09-19T01:17:45;100862.73;;;31.49;18.44
81905;BME280;71370;-33.792;151.032;2023-09-19T01:22:14;100857.87;;;31.67;17.76
81905;BME280;71370;-33.792;151.032;2023-09-19T01:28:29;100837.32;;;31.85;17.37
81905;BME280;71370;-33.792;151.032;2023-09-19T01:29:36;100834.18;;;31.89;17.42
81905;BME280;71370;-33.792;151.032;2023-09-19T01:30:47;100830.13;;;31.93;17.29
81905;BME280;71370;-33.792;151.032;2023-09-19T01:32:01;100833.57;;;31.98;17.81
81905;BME280;71370;-33.792;151.032;2023-09-19T01:33:11;100826.58;;;32.03;17.76
81905;BME280;71370;-33.792;151.032;2023-09-19T01:34:18;100825.37;;;32.09;17.68
81905;BME280;71370;-33.792;151.032;2023-09-19T01:35:25;100821.97;;;32.16;17.54
81905;BME280;71370;-33.792;151.032;2023-09-19T01:36:35;100818.36;;;32.21;17.59
81905;BME280;71370;-33.792;151.032;2023-09-19T01:37:42;100818.02;;;32.26;17.39
81905;BME280;71370;-33.792;151.032;2023-09-19T01:38:51;100806.11;;;32.30;17.25
81905;BME280;71370;-33.792;151.032;2023-09-19T01:40:04;100816.61;;;32.36;17.33
81905;BME280;71370;-33.792;151.032;2023-09-19T01:44:24;100805.17;;;32.54;16.89
81905;BME280;71370;-33.792;151.032;2023-09-19T01:46:48;100800.11;;;32.62;16.83
81905;BME280;71370;-33.792;151.032;2023-09-19T01:49:55;100800.01;;;32.71;16.54
81905;BME280;71370;-33.792;151.032;2023-09-19T01:51:06;100793.95;;;32.76;16.53
81905;BME280;71370;-33.792;151.032;2023-09-19T01:52:14;100784.04;;;32.83;16.34
81905;BME280;71370;-33.792;151.032;2023-09-19T01:54:40;100786.30;;;32.92;16.59
81905;BME280;71370;-33.792;151.032;2023-09-19T01:55:49;100786.11;;;32.99;15.99
81905;BME280;71370;-33.792;151.032;2023-09-19T01:57:15;100777.65;;;33.04;15.11
81905;BME280;71370;-33.792;151.032;2023-09-19T01:58:48;100774.45;;;33.09;14.83
81905;BME280;71370;-33.792;151.032;2023-09-19T02:00:07;100774.23;;;33.14;15.31
81905;BME280;71370;-33.792;151.032;2023-09-19T02:01:16;100772.81;;;33.19;15.41
81905;BME280;71370;-33.792;151.032;2023-09-19T02:02:25;100770.63;;;33.24;15.21
81905;BME280;71370;-33.792;151.032;2023-09-19T02:03:34;100768.20;;;33.30;15.54
81905;BME280;71370;-33.792;151.032;2023-09-19T02:04:41;100769.48;;;33.36;15.01
81905;BME280;71370;-33.792;151.032;2023-09-19T02:05:50;100761.49;;;33.41;14.63
81905;BME280;71370;-33.792;151.032;2023-09-19T02:06:58;100757.33;;;33.44;14.81
81905;BME280;71370;-33.792;151.032;2023-09-19T02:08:05;100756.51;;;33.46;15.21
81905;BME280;71370;-33.792;151.032;2023-09-19T02:09:13;100756.48;;;33.50;15.10
81905;BME280;71370;-33.792;151.032;2023-09-19T02:10:21;100749.88;;;33.54;14.77
81905;BME280;71370;-33.792;151.032;2023-09-19T02:11:29;100739.98;;;33.57;14.62
81905;BME280;71370;-33.792;151.032;2023-09-19T02:12:36;100744.55;;;33.61;14.52
81905;BME280;71370;-33.792;151.032;2023-09-19T02:13:44;100746.27;;;33.65;14.45
81905;BME280;71370;-33.792;151.032;2023-09-19T02:14:52;100739.06;;;33.69;14.40
81905;BME280;71370;-33.792;151.032;2023-09-19T02:15:59;100739.16;;;33.71;13.98
81905;BME280;71370;-33.792;151.032;2023-09-19T02:17:07;100736.36;;;33.73;14.19
81905;BME280;71370;-33.792;151.032;2023-09-19T02:18:17;100733.48;;;33.77;14.28
81905;BME280;71370;-33.792;151.032;2023-09-19T02:19:24;100730.89;;;33.79;14.67
81905;BME280;71370;-33.792;151.032;2023-09-19T02:20:31;100727.94;;;33.82;14.70
81905;BME280;71370;-33.792;151.032;2023-09-19T02:21:39;100731.08;;;33.88;14.29
81905;BME280;71370;-33.792;151.032;2023-09-19T02:22:46;100728.71;;;33.91;14.03
81905;BME280;71370;-33.792;151.032;2023-09-19T02:23:56;100728.64;;;33.93;14.18
81905;BME280;71370;-33.792;151.032;2023-09-19T02:25:03;100724.39;;;33.96;13.95
81905;BME280;71370;-33.792;151.032;2023-09-19T02:26:11;100723.75;;;33.97;14.21
81905;BME280;71370;-33.792;151.032;2023-09-19T02:27:18;100719.35;;;33.99;13.95
81905;BME280;71370;-33.792;151.032;2023-09-19T02:28:25;100710.11;;;34.00;13.93
81905;BME280;71370;-33.792;151.032;2023-09-19T02:29:36;100711.95;;;34.01;13.94
81905;BME280;71370;-33.792;151.032;2023-09-19T02:30:43;100712.60;;;34.03;14.50
81905;BME280;71370;-33.792;151.032;2023-09-19T02:31:50;100714.90;;;34.07;14.77
81905;BME280;71370;-33.792;151.032;2023-09-19T02:32:57;100709.61;;;34.12;14.40
81905;BME280;71370;-33.792;151.032;2023-09-19T02:34:04;100710.92;;;34.17;14.21
81905;BME280;71370;-33.792;151.032;2023-09-19T02:35:13;100709.55;;;34.19;13.31
81905;BME280;71370;-33.792;151.032;2023-09-19T02:36:20;100707.27;;;34.19;13.42
81905;BME280;71370;-33.792;151.032;2023-09-19T02:37:28;100703.49;;;34.18;13.56
81905;BME280;71370;-33.792;151.032;2023-09-19T02:38:35;100702.85;;;34.19;13.71
81905;BME280;71370;-33.792;151.032;2023-09-19T02:39:43;100701.54;;;34.19;13.36
81905;BME280;71370;-33.792;151.032;2023-09-19T02:40:51;100700.63;;;34.19;13.25
81905;BME280;71370;-33.792;151.032;2023-09-19T02:41:58;100699.41;;;34.19;13.38
81905;BME280;71370;-33.792;151.032;2023-09-19T02:43:05;100699.45;;;34.20;13.70
81905;BME280;71370;-33.792;151.032;2023-09-19T02:44:13;100691.98;;;34.23;14.14
81905;BME280;71370;-33.792;151.032;2023-09-19T02:45:20;100690.39;;;34.27;13.83
81905;BME280;71370;-33.792;151.032;2023-09-19T02:46:28;100691.44;;;34.30;13.37
81905;BME280;71370;-33.792;151.032;2023-09-19T02:47:36;100684.16;;;34.33;13.78
81905;BME280;71370;-33.792;151.032;2023-09-19T02:48:43;100680.80;;;34.37;14.16
81905;BME280;71370;-33.792;151.032;2023-09-19T02:49:50;100685.40;;;34.43;14.38
81905;BME280;71370;-33.792;151.032;2023-09-19T02:50:57;100685.98;;;34.48;14.42
81905;BME280;71370;-33.792;151.032;2023-09-19T02:52:04;100682.68;;;34.53;13.94
81905;BME280;71370;-33.792;151.032;2023-09-19T02:53:13;100671.67;;;34.56;13.33
81905;BME280;71370;-33.792;151.032;2023-09-19T02:54:21;100677.20;;;34.59;13.42
81905;BME280;71370;-33.792;151.032;2023-09-19T02:55:29;100664.96;;;34.61;13.76
81905;BME280;71370;-33.792;151.032;2023-09-19T02:56:36;100667.59;;;34.63;13.66
81905;BME280;71370;-33.792;151.032;2023-09-19T02:57:50;100659.88;;;34.67;13.89
81905;BME280;71370;-33.792;151.032;2023-09-19T02:58:57;100662.17;;;34.69;13.65
81905;BME280;71370;-33.792;151.032;2023-09-19T03:00:08;100658.77;;;34.71;13.30
81905;BME280;71370;-33.792;151.032;2023-09-19T03:01:18;100657.66;;;34.73;14.14
81905;BME280;71370;-33.792;151.032;2023-09-19T03:02:25;100652.27;;;34.76;13.75
81905;BME280;71370;-33.792;151.032;2023-09-19T03:03:34;100648.19;;;34.78;13.67
81905;BME280;71370;-33.792;151.032;2023-09-19T03:04:41;100647.94;;;34.79;13.86
81905;BME280;71370;-33.792;151.032;2023-09-19T03:05:48;100648.29;;;34.81;13.99
81905;BME280;71370;-33.792;151.032;2023-09-19T03:06:57;100650.89;;;34.83;14.05
81905;BME280;71370;-33.792;151.032;2023-09-19T03:08:06;100644.38;;;34.85;13.87
81905;BME280;71370;-33.792;151.032;2023-09-19T03:09:14;100645.88;;;34.88;13.38
81905;BME280;71370;-33.792;151.032;2023-09-19T03:10:22;100647.42;;;34.89;13.24
81905;BME280;71370;-33.792;151.032;2023-09-19T03:11:31;100647.14;;;34.89;13.71
81905;BME280;71370;-33.792;151.032;2023-09-19T03:12:38;100646.13;;;34.92;13.84
81905;BME280;71370;-33.792;151.032;2023-09-19T03:13:50;100640.25;;;34.96;13.54
81905;BME280;71370;-33.792;151.032;2023-09-19T03:14:57;100645.42;;;34.97;13.72
81905;BME280;71370;-33.792;151.032;2023-09-19T03:16:05;100641.11;;;34.99;13.63
81905;BME280;71370;-33.792;151.032;2023-09-19T03:17:12;100639.70;;;35.00;13.26
81905;BME280;71370;-33.792;151.032;2023-09-19T03:18:21;100635.70;;;35.00;13.16
81905;BME280;71370;-33.792;151.032;2023-09-19T03:19:29;100637.59;;;34.98;13.22
81905;BME280;71370;-33.792;151.032;2023-09-19T03:20:39;100632.98;;;34.95;13.81
81905;BME280;71370;-33.792;151.032;2023-09-19T03:21:46;100626.55;;;34.96;13.74
81905;BME280;71370;-33.792;151.032;2023-09-19T03:22:55;100628.87;;;34.96;13.63
81905;BME280;71370;-33.792;151.032;2023-09-19T03:24:03;100629.02;;;34.96;13.22
81905;BME280;71370;-33.792;151.032;2023-09-19T03:25:10;100630.21;;;34.95;13.52
81905;BME280;71370;-33.792;151.032;2023-09-19T03:26:18;100624.57;;;34.94;13.42
81905;BME280;71370;-33.792;151.032;2023-09-19T03:27:25;100617.15;;;34.93;13.36
81905;BME280;71370;-33.792;151.032;2023-09-19T03:28:34;100615.76;;;34.94;13.56
81905;BME280;71370;-33.792;151.032;2023-09-19T03:29:44;100608.67;;;34.94;13.19
81905;BME280;71370;-33.792;151.032;2023-09-19T03:31:03;100605.55;;;34.94;13.45
81905;BME280;71370;-33.792;151.032;2023-09-19T03:32:11;100600.67;;;34.95;13.87
81905;BME280;71370;-33.792;151.032;2023-09-19T03:33:17;100602.15;;;34.95;13.58
81905;BME280;71370;-33.792;151.032;2023-09-19T03:34:24;100602.95;;;34.94;13.33
81905;BME280;71370;-33.792;151.032;2023-09-19T03:35:31;100596.55;;;34.93;12.99
81905;BME280;71370;-33.792;151.032;2023-09-19T03:36:39;100600.45;;;34.90;13.15
81905;BME280;71370;-33.792;151.032;2023-09-19T03:37:47;100597.73;;;34.88;13.27
81905;BME280;71370;-33.792;151.032;2023-09-19T03:38:54;100594.48;;;34.90;13.62
81905;BME280;71370;-33.792;151.032;2023-09-19T03:40:01;100593.59;;;34.92;13.48
81905;BME280;71370;-33.792;151.032;2023-09-19T03:41:11;100588.14;;;34.93;13.26
81905;BME280;71370;-33.792;151.032;2023-09-19T03:42:20;100582.42;;;34.92;13.21
81905;BME280;71370;-33.792;151.032;2023-09-19T03:43:34;100573.60;;;34.89;13.35
81905;BME280;71370;-33.792;151.032;2023-09-19T03:44:41;100574.70;;;34.87;13.05
81905;BME280;71370;-33.792;151.032;2023-09-19T03:45:48;100574.94;;;34.86;13.54
81905;BME280;71370;-33.792;151.032;2023-09-19T03:46:57;100575.02;;;34.85;13.49
81905;BME280;71370;-33.792;151.032;2023-09-19T03:48:09;100574.16;;;34.86;13.19
81905;BME280;71370;-33.792;151.032;2023-09-19T03:49:16;100574.27;;;34.86;12.94
81905;BME280;71370;-33.792;151.032;2023-09-19T03:50:23;100573.59;;;34.86;13.08
81905;BME280;71370;-33.792;151.032;2023-09-19T03:51:30;100567.37;;;34.85;12.64
81905;BME280;71370;-33.792;151.032;2023-09-19T03:52:37;100571.23;;;34.84;12.82
81905;BME280;71370;-33.792;151.032;2023-09-19T03:53:45;100564.77;;;34.83;13.57
81905;BME280;71370;-33.792;151.032;2023-09-19T03:54:52;100559.05;;;34.84;13.78
81905;BME280;71370;-33.792;151.032;2023-09-19T03:55:59;100558.23;;;34.85;13.05
81905;BME280;71370;-33.792;151.032;2023-09-19T03:57:06;100557.84;;;34.85;13.24
81905;BME280;71370;-33.792;151.032;2023-09-19T03:58:13;100556.35;;;34.85;13.17
81905;BME280;71370;-33.792;151.032;2023-09-19T03:59:20;100556.86;;;34.84;13.26
81905;BME280;71370;-33.792;151.032;2023-09-19T04:00:28;100553.75;;;34.82;13.25
81905;BME280;71370;-33.792;151.032;2023-09-19T04:01:36;100552.77;;;34.81;13.56
81905;BME280;71370;-33.792;151.032;2023-09-19T04:02:43;100548.58;;;34.80;13.13
81905;BME280;71370;-33.792;151.032;2023-09-19T04:03:52;100545.02;;;34.77;13.38
81905;BME280;71370;-33.792;151.032;2023-09-19T04:04:59;100547.15;;;34.75;13.04
81905;BME280;71370;-33.792;151.032;2023-09-19T04:06:06;100545.02;;;34.73;13.51
81905;BME280;71370;-33.792;151.032;2023-09-19T04:07:13;100543.86;;;34.70;13.54
81905;BME280;71370;-33.792;151.032;2023-09-19T04:08:21;100538.95;;;34.70;13.69
81905;BME280;71370;-33.792;151.032;2023-09-19T04:09:27;100534.73;;;34.70;13.62
81905;BME280;71370;-33.792;151.032;2023-09-19T04:10:34;100531.30;;;34.70;13.63
81905;BME280;71370;-33.792;151.032;2023-09-19T04:11:42;100528.62;;;34.69;13.27
81905;BME280;71370;-33.792;151.032;2023-09-19T04:12:52;100524.97;;;34.68;13.23
81905;BME280;71370;-33.792;151.032;2023-09-19T04:14:03;100523.99;;;34.66;13.17
81905;BME280;71370;-33.792;151.032;2023-09-19T04:15:10;100521.27;;;34.63;13.43
81905;BME280;71370;-33.792;151.032;2023-09-19T04:16:19;100520.19;;;34.62;13.60
81905;BME280;71370;-33.792;151.032;2023-09-19T04:17:26;100520.66;;;34.62;14.02
81905;BME280;71370;-33.792;151.032;2023-09-19T04:18:33;100512.10;;;34.64;14.06
81905;BME280;71370;-33.792;151.032;2023-09-19T04:19:44;100512.60;;;34.64;13.54
81905;BME280;71370;-33.792;151.032;2023-09-19T04:20:52;100514.58;;;34.64;13.73
81905;BME280;71370;-33.792;151.032;2023-09-19T04:22:00;100520.33;;;34.65;13.82
81905;BME280;71370;-33.792;151.032;2023-09-19T04:23:07;100518.68;;;34.65;13.60
81905;BME280;71370;-33.792;151.032;2023-09-19T04:24:14;100517.52;;;34.66;13.64
81905;BME280;71370;-33.792;151.032;2023-09-19T04:25:21;100514.50;;;34.66;13.38
81905;BME280;71370;-33.792;151.032;2023-09-19T04:26:28;100509.63;;;34.66;13.59
81905;BME280;71370;-33.792;151.032;2023-09-19T04:27:35;100507.65;;;34.66;13.34
81905;BME280;71370;-33.792;151.032;2023-09-19T04:28:42;100515.48;;;34.65;13.57
81905;BME280;71370;-33.792;151.032;2023-09-19T04:29:50;100507.08;;;34.63;13.55
81905;BME280;71370;-33.792;151.032;2023-09-19T04:30:59;100507.93;;;34.62;13.56
81905;BME280;71370;-33.792;151.032;2023-09-19T04:32:07;100503.20;;;34.62;13.74
81905;BME280;71370;-33.792;151.032;2023-09-19T04:33:14;100505.59;;;34.63;13.56
81905;BME280;71370;-33.792;151.032;2023-09-19T04:34:21;100497.51;;;34.64;13.25
81905;BME280;71370;-33.792;151.032;2023-09-19T04:35:28;100497.59;;;34.63;13.05
81905;BME280;71370;-33.792;151.032;2023-09-19T04:36:37;100497.73;;;34.60;13.47
81905;BME280;71370;-33.792;151.032;2023-09-19T04:37:44;100493.92;;;34.57;13.48
81905;BME280;71370;-33.792;151.032;2023-09-19T04:38:51;100492.06;;;34.54;13.77
81905;BME280;71370;-33.792;151.032;2023-09-19T04:40:00;100487.67;;;34.51;13.75
81905;BME280;71370;-33.792;151.032;2023-09-19T04:41:07;100485.43;;;34.48;13.54
81905;BME280;71370;-33.792;151.032;2023-09-19T04:42:14;100485.56;;;34.46;13.49
81905;BME280;71370;-33.792;151.032;2023-09-19T04:43:21;100484.48;;;34.43;13.69
81905;BME280;71370;-33.792;151.032;2023-09-19T04:44:28;100485.75;;;34.40;13.83
81905;BME280;71370;-33.792;151.032;2023-09-19T04:45:35;100480.66;;;34.40;13.99
81905;BME280;71370;-33.792;151.032;2023-09-19T04:46:42;100478.21;;;34.40;14.16
81905;BME280;71370;-33.792;151.032;2023-09-19T04:47:49;100477.00;;;34.41;14.27
81905;BME280;71370;-33.792;151.032;2023-09-19T04:48:56;100479.11;;;34.40;13.80
81905;BME280;71370;-33.792;151.032;2023-09-19T04:50:08;100475.41;;;34.39;13.96
81905;BME280;71370;-33.792;151.032;2023-09-19T04:51:18;100477.83;;;34.37;13.72
81905;BME280;71370;-33.792;151.032;2023-09-19T04:52:26;100474.92;;;34.36;13.46
81905;BME280;71370;-33.792;151.032;2023-09-19T04:53:33;100470.95;;;34.32;13.74
81905;BME280;71370;-33.792;151.032;2023-09-19T04:54:40;100472.84;;;34.25;13.66
81905;BME280;71370;-33.792;151.032;2023-09-19T04:55:54;100475.66;;;34.18;14.00
81905;BME280;71370;-33.792;151.032;2023-09-19T04:57:01;100470.77;;;34.11;13.42
81905;BME280;71370;-33.792;151.032;2023-09-19T04:58:09;100468.13;;;34.09;13.68
81905;BME280;71370;-33.792;151.032;2023-09-19T04:59:16;100463.45;;;34.07;14.15
81905;BME280;71370;-33.792;151.032;2023-09-19T05:00:24;100460.16;;;34.06;14.08
81905;BME280;71370;-33.792;151.032;2023-09-19T05:01:31;100459.82;;;34.06;14.15
81905;BME280;71370;-33.792;151.032;2023-09-19T05:02:38;100461.65;;;34.05;14.17
81905;BME280;71370;-33.792;151.032;2023-09-19T05:03:46;100456.23;;;34.05;13.88
81905;BME280;71370;-33.792;151.032;2023-09-19T05:04:58;100457.08;;;34.06;13.73
81905;BME280;71370;-33.792;151.032;2023-09-19T05:06:06;100458.54;;;34.04;13.61
81905;BME280;71370;-33.792;151.032;2023-09-19T05:07:14;100460.30;;;34.03;13.30
81905;BME280;71370;-33.792;151.032;2023-09-19T05:08:21;100450.68;;;34.01;13.23
81905;BME280;71370;-33.792;151.032;2023-09-19T05:09:28;100451.33;;;33.99;13.31
81905;BME280;71370;-33.792;151.032;2023-09-19T05:10:36;100453.33;;;33.97;13.54
81905;BME280;71370;-33.792;151.032;2023-09-19T05:11:46;100449.67;;;33.96;13.95
81905;BME280;71370;-33.792;151.032;2023-09-19T05:12:56;100453.54;;;33.95;13.93
81905;BME280;71370;-33.792;151.032;2023-09-19T05:14:03;100456.38;;;33.96;14.18
81905;BME280;71370;-33.792;151.032;2023-09-19T05:15:10;100455.25;;;33.96;13.19
81905;BME280;71370;-33.792;151.032;2023-09-19T05:16:17;100451.23;;;33.95;13.10
81905;BME280;71370;-33.792;151.032;2023-09-19T05:17:24;100450.48;;;33.93;13.25
81905;BME280;71370;-33.792;151.032;2023-09-19T05:18:31;100449.18;;;33.92;13.19
81905;BME280;71370;-33.792;151.032;2023-09-19T05:19:39;100453.16;;;33.90;13.22
81905;BME280;71370;-33.792;151.032;2023-09-19T05:20:46;100450.40;;;33.89;13.10
81905;BME280;71370;-33.792;151.032;2023-09-19T05:21:53;100449.08;;;33.88;13.04
81905;BME280;71370;-33.792;151.032;2023-09-19T05:23:10;100452.33;;;33.87;12.78
81905;BME280;71370;-33.792;151.032;2023-09-19T05:24:19;100449.06;;;33.84;12.71
81905;BME280;71370;-33.792;151.032;2023-09-19T05:25:32;100442.80;;;33.80;13.15
81905;BME280;71370;-33.792;151.032;2023-09-19T05:26:39;100442.77;;;33.79;13.22
81905;BME280;71370;-33.792;151.032;2023-09-19T05:27:46;100439.33;;;33.77;13.38
81905;BME280;71370;-33.792;151.032;2023-09-19T05:28:53;100433.62;;;33.75;13.20
81905;BME280;71370;-33.792;151.032;2023-09-19T05:30:00;100437.77;;;33.74;13.21
81905;BME280;71370;-33.792;151.032;2023-09-19T05:31:07;100440.48;;;33.71;13.55
81905;BME280;71370;-33.792;151.032;2023-09-19T05:32:14;100439.15;;;33.70;13.57
81905;BME280;71370;-33.792;151.032;2023-09-19T05:33:22;100441.70;;;33.69;13.38
81905;BME280;71370;-33.792;151.032;2023-09-19T05:34:29;100440.58;;;33.67;13.57
81905;BME280;71370;-33.792;151.032;2023-09-19T05:35:36;100442.51;;;33.66;13.47
81905;BME280;71370;-33.792;151.032;2023-09-19T05:36:46;100441.23;;;33.65;13.32
81905;BME280;71370;-33.792;151.032;2023-09-19T05:37:55;100439.85;;;33.62;13.37
81905;BME280;71370;-33.792;151.032;2023-09-19T05:39:02;100443.25;;;33.60;12.93
81905;BME280;71370;-33.792;151.032;2023-09-19T05:40:10;100444.39;;;33.58;12.85
81905;BME280;71370;-33.792;151.032;2023-09-19T05:41:18;100439.17;;;33.54;12.96
81905;BME280;71370;-33.792;151.032;2023-09-19T05:42:25;100435.76;;;33.52;12.83
81905;BME280;71370;-33.792;151.032;2023-09-19T05:43:32;100442.65;;;33.49;12.76
81905;BME280;71370;-33.792;151.032;2023-09-19T05:44:40;100441.98;;;33.45;12.68
81905;BME280;71370;-33.792;151.032;2023-09-19T05:45:47;100439.36;;;33.43;12.94
81905;BME280;71370;-33.792;151.032;2023-09-19T05:46:54;100441.41;;;33.41;12.58
81905;BME280;71370;-33.792;151.032;2023-09-19T05:48:11;100439.80;;;33.38;12.46
81905;BME280;71370;-33.792;151.032;2023-09-19T05:49:19;100437.77;;;33.34;12.28
81905;BME280;71370;-33.792;151.032;2023-09-19T05:50:28;100432.81;;;33.31;12.56
81905;BME280;71370;-33.792;151.032;2023-09-19T05:51:35;100434.22;;;33.29;12.93
81905;BME280;71370;-33.792;151.032;2023-09-19T05:52:42;100433.37;;;33.27;12.98
81905;BME280;71370;-33.792;151.032;2023-09-19T05:53:52;100431.10;;;33.24;12.94
81905;BME280;71370;-33.792;151.032;2023-09-19T05:55:00;100436.16;;;33.21;13.05
81905;BME280;71370;-33.792;151.032;2023-09-19T05:56:07;100434.26;;;33.18;13.01
81905;BME280;71370;-33.792;151.032;2023-09-19T05:57:15;100435.70;;;33.14;12.58
81905;BME280;71370;-33.792;151.032;2023-09-19T05:58:23;100434.55;;;33.12;12.49
81905;BME280;71370;-33.792;151.032;2023-09-19T05:59:30;100436.92;;;33.08;12.83
81905;BME280;71370;-33.792;151.032;2023-09-19T06:00:37;100434.55;;;33.05;12.70
81905;BME280;71370;-33.792;151.032;2023-09-19T06:01:44;100433.59;;;33.01;12.58